createdAt,value
2023-07-24T00:04:26.039Z,0.70
2023-07-24T00:10:30.903Z,0.98
2023-07-24T00:16:34.620Z,1.13
2023-07-24T00:22:38.096Z,1.10
2023-07-24T00:28:43.074Z,1.27
2023-07-24T00:34:46.521Z,0.98
2023-07-24T00:40:51.075Z,0.93
2023-07-24T00:46:55.990Z,1.08
2023-07-24T00:52:59.894Z,1.10
2023-07-24T00:59:03.910Z,0.60
2023-07-24T01:05:09.394Z,0.95
2023-07-24T01:11:15.246Z,1.08
2023-07-24T01:17:23.163Z,0.90
2023-07-24T01:23:36.921Z,0.88
2023-07-24T01:29:41.853Z,1.60
2023-07-24T01:35:46.258Z,1.08
2023-07-24T01:41:50.047Z,1.35
2023-07-24T01:47:54.880Z,1.67
2023-07-24T01:53:58.426Z,1.83
2023-07-24T02:00:02.095Z,1.50
2023-07-24T02:06:06.943Z,1.83
2023-07-24T02:12:10.405Z,1.88
2023-07-24T02:18:14.035Z,1.85
2023-07-24T02:24:18.863Z,2.00
2023-07-24T02:30:22.508Z,1.67
2023-07-24T02:36:25.972Z,1.70
2023-07-24T02:42:30.774Z,1.70
2023-07-24T02:48:34.239Z,1.92
2023-07-24T02:54:37.953Z,1.52
2023-07-24T03:00:42.889Z,1.83
2023-07-24T03:06:47.032Z,1.63
2023-07-24T03:12:50.499Z,2.10
2023-07-24T03:18:55.473Z,1.55
2023-07-24T03:24:59.032Z,1.48
2023-07-24T03:31:02.518Z,1.80
2023-07-24T03:37:07.904Z,1.90
2023-07-24T03:43:11.336Z,1.75
2023-07-24T03:49:14.885Z,2.08
2023-07-24T03:55:19.742Z,2.47
2023-07-24T04:01:23.874Z,2.50
2023-07-24T04:07:27.349Z,2.17
2023-07-24T04:13:32.367Z,2.92
2023-07-24T04:19:35.811Z,2.70
2023-07-24T04:25:39.214Z,2.63
2023-07-24T04:31:44.018Z,2.45
2023-07-24T04:37:47.575Z,1.77
2023-07-24T04:43:51.045Z,2.65
2023-07-24T04:49:56.316Z,1.85
2023-07-24T04:55:59.726Z,1.77
2023-07-24T05:02:03.404Z,2.22
2023-07-24T05:08:08.484Z,1.88
2023-07-24T05:14:11.938Z,1.65
2023-07-24T05:20:15.605Z,1.70
2023-07-24T05:26:20.594Z,1.75
2023-07-24T05:32:24.098Z,3.13
2023-07-24T05:38:27.627Z,2.28
2023-07-24T05:44:32.432Z,2.20
2023-07-24T05:50:36.111Z,2.50
2023-07-24T05:56:41.012Z,3.30
2023-07-24T06:02:46.246Z,2.40
2023-07-24T06:08:49.736Z,3.25
2023-07-24T06:14:53.154Z,3.03
2023-07-24T06:20:57.934Z,3.95
2023-07-24T06:27:01.658Z,3.20
2023-07-24T06:33:05.167Z,3.58
2023-07-24T06:39:10.225Z,3.55
2023-07-24T06:45:13.652Z,3.22
2023-07-24T06:51:17.062Z,3.10
2023-07-24T06:57:21.882Z,3.47
2023-07-24T07:03:25.564Z,3.45
2023-07-24T07:09:29.210Z,3.10
2023-07-24T07:15:34.216Z,2.78
2023-07-24T07:21:37.988Z,3.45
2023-07-24T07:27:41.477Z,3.30
2023-07-24T07:33:46.427Z,3.33
2023-07-24T07:39:49.861Z,2.83
2023-07-24T07:45:53.341Z,2.67
2023-07-24T07:51:58.250Z,2.70
2023-07-24T07:58:01.871Z,2.88
2023-07-24T08:04:05.454Z,3.20
2023-07-24T08:10:11.294Z,3.15
2023-07-24T08:16:19.968Z,2.90
2023-07-24T08:22:24.098Z,3.47
2023-07-24T08:28:28.922Z,3.15
2023-07-24T08:34:32.379Z,3.00
2023-07-24T08:40:36.091Z,2.90
2023-07-24T08:46:42.704Z,2.90
2023-07-24T08:52:48.078Z,2.45
2023-07-24T08:58:52.011Z,2.75
2023-07-24T09:04:56.808Z,2.72
2023-07-24T09:11:00.386Z,2.58
2023-07-24T09:17:08.105Z,2.60
2023-07-24T09:23:16.265Z,2.03
2023-07-24T09:29:21.835Z,2.90
2023-07-24T09:35:28.348Z,2.75
2023-07-24T09:41:33.322Z,2.85
2023-07-24T09:47:54.780Z,2.13
2023-07-24T09:54:03.965Z,2.40
2023-07-24T10:00:09.852Z,2.88
2023-07-24T10:06:15.993Z,2.80
2023-07-24T10:12:20.476Z,2.88
2023-07-24T10:18:30.969Z,3.25
2023-07-24T10:24:41.864Z,2.80
2023-07-24T10:30:46.386Z,2.90
2023-07-24T10:36:51.232Z,3.10
2023-07-24T10:43:01.958Z,3.30
2023-07-24T10:49:05.776Z,3.50
2023-07-24T10:55:11.022Z,2.88
2023-07-24T11:01:15.554Z,2.17
2023-07-24T11:07:19.628Z,2.33
2023-07-24T11:13:25.357Z,2.85
2023-07-24T11:19:28.813Z,2.22
2023-07-24T11:25:32.612Z,2.67
2023-07-24T11:31:40.966Z,2.88
2023-07-24T11:37:44.492Z,2.80
2023-07-24T11:43:49.568Z,2.75
2023-07-24T11:50:01.042Z,2.72
2023-07-24T11:56:04.525Z,2.67
2023-07-24T12:02:08.040Z,2.50
2023-07-24T12:08:15.169Z,2.30
2023-07-24T12:14:18.649Z,3.17
2023-07-24T12:20:22.124Z,2.10
2023-07-24T12:26:28.816Z,2.50
2023-07-24T12:32:32.828Z,2.28
2023-07-24T12:38:36.292Z,1.95
2023-07-24T12:44:41.104Z,1.55
2023-07-24T12:50:44.532Z,2.28
2023-07-24T12:56:48.557Z,1.88
2023-07-24T13:02:53.520Z,2.45
2023-07-24T13:08:57.019Z,1.88
2023-07-24T13:15:01.729Z,2.22
2023-07-24T13:21:07.554Z,2.20
2023-07-24T13:27:11.097Z,2.20
2023-07-24T13:33:14.595Z,2.10
2023-07-24T13:39:19.480Z,2.25
2023-07-24T13:45:23.075Z,2.40
2023-07-24T13:51:26.635Z,2.55
2023-07-24T13:57:31.422Z,3.25
2023-07-24T14:03:35.200Z,2.70
2023-07-24T14:09:39.434Z,2.70
2023-07-24T14:15:45.722Z,2.42
2023-07-24T14:21:49.184Z,2.45
2023-07-24T14:27:52.905Z,2.10
2023-07-24T14:33:57.763Z,1.95
2023-07-24T14:40:01.231Z,2.30
2023-07-24T14:46:04.712Z,1.80
2023-07-24T14:52:10.220Z,1.50
2023-07-24T14:58:13.745Z,1.50
2023-07-24T15:04:17.246Z,1.40
2023-07-24T15:10:23.405Z,1.38
2023-07-24T15:16:26.891Z,1.38
2023-07-24T15:22:30.345Z,1.10
2023-07-24T15:28:35.299Z,0.80
2023-07-24T15:34:39.977Z,0.90
2023-07-24T15:40:43.674Z,0.80
2023-07-24T15:46:49.017Z,0.80
2023-07-24T15:52:52.614Z,0.47
2023-07-24T15:58:56.551Z,0.40
2023-07-24T16:05:01.422Z,0.60
2023-07-24T16:11:09.078Z,0.40
2023-07-24T16:17:12.566Z,0.60
2023-07-24T16:23:17.396Z,0.68
2023-07-24T16:29:21.260Z,0.40
2023-07-24T16:35:24.776Z,0.32
2023-07-24T16:41:29.812Z,0.30
2023-07-24T16:47:33.432Z,0.40
2023-07-24T16:53:38.710Z,0.40
2023-07-24T16:59:44.044Z,0.30
2023-07-24T17:05:47.519Z,0.43
2023-07-24T17:11:51.115Z,0.80
2023-07-24T17:17:56.239Z,0.73
2023-07-24T17:23:59.772Z,0.90
2023-07-24T17:30:03.273Z,0.80
2023-07-24T17:36:08.327Z,1.10
2023-07-24T17:42:11.848Z,0.98
2023-07-24T17:48:19.917Z,0.90
2023-07-24T17:54:27.440Z,1.17
2023-07-24T18:00:34.327Z,1.25
2023-07-24T18:06:38.025Z,1.00
2023-07-24T18:12:43.121Z,1.00
2023-07-24T18:18:46.575Z,1.20
2023-07-24T18:24:50.190Z,1.10
2023-07-24T18:30:59.646Z,1.25
2023-07-24T18:37:05.840Z,0.90
2023-07-24T18:43:12.298Z,1.02
2023-07-24T18:49:20.176Z,1.20
2023-07-24T18:55:25.497Z,1.27
2023-07-24T19:01:31.195Z,1.30
2023-07-24T19:07:36.436Z,1.30
2023-07-24T19:13:40.640Z,1.30
2023-07-24T19:19:45.035Z,1.30
2023-07-24T19:25:49.894Z,1.25
2023-07-24T19:31:53.807Z,1.63
2023-07-24T19:37:57.353Z,1.40
2023-07-24T19:44:02.247Z,1.20
2023-07-24T19:50:07.081Z,1.30
2023-07-24T19:56:10.811Z,1.30
2023-07-24T20:02:15.729Z,1.13
2023-07-24T20:08:19.232Z,1.60
2023-07-24T20:14:22.847Z,1.38
2023-07-24T20:20:27.693Z,1.77
2023-07-24T20:26:31.137Z,1.55
2023-07-24T20:32:35.018Z,1.50
2023-07-24T20:38:40.090Z,1.40
2023-07-24T20:44:49.312Z,1.23
2023-07-24T20:50:55.356Z,1.38
2023-07-24T20:57:00.164Z,1.17
2023-07-24T21:03:03.970Z,1.63
2023-07-24T21:09:07.472Z,1.30
2023-07-24T21:15:12.933Z,1.27
2023-07-24T21:21:16.481Z,1.30
2023-07-24T21:27:20.133Z,1.27
2023-07-24T21:33:24.991Z,1.83
2023-07-24T21:39:28.446Z,1.40
2023-07-24T21:45:32.049Z,1.50
2023-07-24T21:51:37.492Z,1.45
2023-07-24T21:57:40.956Z,1.30
2023-07-24T22:03:44.416Z,1.75
2023-07-24T22:09:49.431Z,1.73
2023-07-24T22:15:52.980Z,1.77
2023-07-24T22:21:56.483Z,1.70
2023-07-24T22:28:01.315Z,1.58
2023-07-24T22:34:04.779Z,1.60
2023-07-24T22:40:08.728Z,1.50
2023-07-24T22:46:13.594Z,1.98
2023-07-24T22:52:17.209Z,1.70
2023-07-24T22:58:21.227Z,1.70
2023-07-24T23:04:26.809Z,1.75
2023-07-24T23:10:30.300Z,1.33
2023-07-24T23:16:33.780Z,1.88
2023-07-24T23:22:38.672Z,1.50
2023-07-24T23:28:42.292Z,2.33
2023-07-24T23:34:45.865Z,1.63
2023-07-24T23:40:58.560Z,1.70
2023-07-24T23:47:02.147Z,2.13
2023-07-24T23:53:07.653Z,2.20
2023-07-24T23:59:12.632Z,1.90
